Time;durP1;ratioP1;P1;durP2;ratioP2;P2;SDS_P1;SDS_P2;PMS_P1;PMS_P2;Temp;Humidity;BMP_temperature;BMP_pressure;BME280_temperature;BME280_humidity;BME280_pressure;Samples;Min_cycle;Max_cycle;Signal;HPM_P1;HPM_P2
2021/11/30 00:01:07;;;;;;;2.05;0.60;;;;;;;;;;5054640;28;20040;-69
2021/11/30 00:03:33;;;;;;;1.25;0.82;;;;;;;;;;5053187;28;20063;-69
2021/11/30 00:06:00;;;;;;;1.20;0.82;;;;;;;;;;5053767;28;20029;-68
2021/11/30 00:08:29;;;;;;;0.82;0.55;;;;;;;;;;5054407;28;20029;-68
2021/11/30 00:10:58;;;;;;;1.42;0.70;;;;;;;;;;5053728;28;20068;-69
2021/11/30 00:13:24;;;;;;;0.55;0.40;;;;;;;;;;5054482;28;20028;-69
2021/11/30 00:15:52;;;;;;;0.93;0.60;;;;;;;;;;5054158;28;20352;-67
2021/11/30 00:18:18;;;;;;;0.65;0.50;;;;;;;;;;5054145;28;20017;-68
2021/11/30 00:20:44;;;;;;;1.08;0.47;;;;;;;;;;5054084;28;20029;-68
2021/11/30 00:23:11;;;;;;;1.08;0.70;;;;;;;;;;5053159;28;20601;-69
2021/11/30 00:25:38;;;;;;;0.50;0.50;;;;;;;;;;5052531;28;20110;-67
2021/11/30 00:28:05;;;;;;;0.55;0.50;;;;;;;;;;5048051;28;20476;-68
2021/11/30 00:30:32;;;;;;;1.27;0.75;;;;;;;;;;5053779;28;20044;-68
2021/11/30 00:32:59;;;;;;;0.70;0.50;;;;;;;;;;5053531;28;20033;-68
2021/11/30 00:35:25;;;;;;;0.80;0.63;;;;;;;;;;5053768;28;20035;-69
2021/11/30 00:37:51;;;;;;;1.38;0.60;;;;;;;;;;5053079;28;20049;-67
2021/11/30 00:40:17;;;;;;;0.40;0.40;;;;;;;;;;5053596;28;20037;-68
2021/11/30 00:42:44;;;;;;;0.93;0.70;;;;;;;;;;5054161;28;20064;-68
2021/11/30 00:45:12;;;;;;;1.17;0.60;;;;;;;;;;5052914;28;20676;-68
2021/11/30 00:47:45;;;;;;;0.70;0.70;;;;;;;;;;5053614;28;20082;-68
2021/11/30 00:50:12;;;;;;;0.93;0.60;;;;;;;;;;5052149;28;20474;-68
2021/11/30 00:52:38;;;;;;;0.80;0.50;;;;;;;;;;5053618;28;20037;-68
2021/11/30 00:55:04;;;;;;;1.00;0.60;;;;;;;;;;5052615;28;20082;-68
2021/11/30 00:57:30;;;;;;;2.47;0.68;;;;;;;;;;5053492;28;20374;-69
2021/11/30 00:59:56;;;;;;;0.95;0.63;;;;;;;;;;5053431;28;20021;-68
2021/11/30 01:02:22;;;;;;;1.08;0.50;;;;;;;;;;5054267;28;20048;-68
2021/11/30 01:04:48;;;;;;;1.25;0.70;;;;;;;;;;5053971;28;20029;-69
2021/11/30 01:07:15;;;;;;;1.27;0.63;;;;;;;;;;5052920;28;20374;-68
2021/11/30 01:09:42;;;;;;;0.50;0.50;;;;;;;;;;5053586;28;20060;-69
2021/11/30 01:12:09;;;;;;;0.57;0.57;;;;;;;;;;5052474;28;20040;-68
2021/11/30 01:14:35;;;;;;;0.95;0.50;;;;;;;;;;5053309;28;20140;-69
2021/11/30 01:17:01;;;;;;;0.70;0.60;;;;;;;;;;5052223;28;20017;-68
2021/11/30 01:19:27;;;;;;;1.45;0.60;;;;;;;;;;5052640;28;20033;-67
2021/11/30 01:21:53;;;;;;;1.02;0.47;;;;;;;;;;5052765;28;20064;-66
2021/11/30 01:24:20;;;;;;;0.90;0.43;;;;;;;;;;5052882;28;20459;-68
2021/11/30 01:26:46;;;;;;;1.25;0.60;;;;;;;;;;5052436;28;20025;-68
2021/11/30 01:29:12;;;;;;;1.33;0.60;;;;;;;;;;5051599;28;20599;-68
2021/11/30 01:31:38;;;;;;;0.93;0.52;;;;;;;;;;5085480;28;20040;-68
2021/11/30 01:34:04;;;;;;;1.15;0.60;;;;;;;;;;5051962;28;20111;-68
2021/11/30 01:36:30;;;;;;;2.72;1.13;;;;;;;;;;5052884;28;20017;-68
2021/11/30 01:39:00;;;;;;;0.88;0.50;;;;;;;;;;5052170;28;20398;-68
2021/11/30 01:41:27;;;;;;;1.35;0.47;;;;;;;;;;5051457;28;20479;-68
2021/11/30 01:43:54;;;;;;;1.00;0.45;;;;;;;;;;5052242;28;20041;-68
2021/11/30 01:46:52;;;;;;;1.30;0.30;;;;;;;;;;5051945;28;20474;-67
2021/11/30 01:49:23;;;;;;;1.20;0.73;;;;;;;;;;5051563;28;20025;-68
2021/11/30 01:51:49;;;;;;;1.75;0.47;;;;;;;;;;5052635;28;20105;-68
2021/11/30 01:54:15;;;;;;;0.45;0.43;;;;;;;;;;5051981;28;20024;-68
2021/11/30 01:56:41;;;;;;;0.82;0.50;;;;;;;;;;5052430;28;20024;-68
2021/11/30 01:59:07;;;;;;;1.17;0.50;;;;;;;;;;5051885;28;20029;-67
2021/11/30 02:01:33;;;;;;;1.33;0.60;;;;;;;;;;5052043;28;20021;-67
2021/11/30 02:04:00;;;;;;;0.30;0.30;;;;;;;;;;5051586;28;20473;-66
2021/11/30 02:06:26;;;;;;;1.50;0.43;;;;;;;;;;5052324;28;20106;-67
2021/11/30 02:08:52;;;;;;;0.60;0.40;;;;;;;;;;5051262;28;20025;-67
2021/11/30 02:11:18;;;;;;;0.47;0.40;;;;;;;;;;5051597;28;20060;-71
2021/11/30 02:13:44;;;;;;;1.58;0.40;;;;;;;;;;5052290;28;20041;-69
2021/11/30 02:16:11;;;;;;;0.68;0.40;;;;;;;;;;5051445;28;20040;-69
2021/11/30 02:18:43;;;;;;;0.40;0.40;;;;;;;;;;5052571;28;20068;-68
2021/11/30 02:21:09;;;;;;;;;;;;;;;;;;5052121;28;20024;-68
2021/11/30 02:23:40;;;;;;;0.73;0.47;;;;;;;;;;5052396;28;19911;-68
2021/11/30 02:26:10;;;;;;;0.75;0.50;;;;;;;;;;5051006;28;20036;-68
2021/11/30 02:28:36;;;;;;;0.50;0.50;;;;;;;;;;5052062;28;20025;-68
2021/11/30 02:31:02;;;;;;;0.40;0.40;;;;;;;;;;5051284;28;20068;-67
2021/11/30 02:33:28;;;;;;;0.32;0.32;;;;;;;;;;5051815;28;20017;-68
2021/11/30 02:35:54;;;;;;;0.98;0.45;;;;;;;;;;5051307;28;20036;-67
2021/11/30 02:38:20;;;;;;;1.75;0.55;;;;;;;;;;5052166;28;20051;-68
2021/11/30 02:40:46;;;;;;;0.63;0.40;;;;;;;;;;5040079;28;20029;-68
2021/11/30 02:43:12;;;;;;;0.45;0.40;;;;;;;;;;5031259;28;20367;-67
2021/11/30 02:45:38;;;;;;;0.60;0.40;;;;;;;;;;5032159;28;20029;-68
2021/11/30 02:48:05;;;;;;;0.85;0.47;;;;;;;;;;5048588;28;20032;-68
2021/11/30 02:50:39;;;;;;;0.95;0.55;;;;;;;;;;5051905;28;20021;-69
2021/11/30 02:53:05;;;;;;;0.52;0.50;;;;;;;;;;5046768;28;20044;-68
2021/11/30 02:55:31;;;;;;;1.23;0.57;;;;;;;;;;5031808;28;20026;-68
2021/11/30 02:57:57;;;;;;;1.55;0.43;;;;;;;;;;5047238;28;20032;-66
2021/11/30 03:00:23;;;;;;;1.05;0.50;;;;;;;;;;5040868;28;20037;-68
2021/11/30 03:02:49;;;;;;;0.77;0.45;;;;;;;;;;5031638;28;20485;-68
2021/11/30 03:05:15;;;;;;;0.77;0.47;;;;;;;;;;5031160;28;20028;-68
2021/11/30 03:07:41;;;;;;;1.65;0.60;;;;;;;;;;5045329;28;20021;-68
2021/11/30 03:10:12;;;;;;;0.70;0.40;;;;;;;;;;5050743;28;20367;-68
2021/11/30 03:12:38;;;;;;;0.77;0.40;;;;;;;;;;5051588;28;20041;-68
2021/11/30 03:15:19;;;;;;;0.65;0.38;;;;;;;;;;5053695;28;20500;-68
2021/11/30 03:17:46;;;;;;;0.90;0.60;;;;;;;;;;5055035;28;20025;-68
2021/11/30 03:20:12;;;;;;;0.65;0.50;;;;;;;;;;5055054;28;20041;-69
2021/11/30 03:22:39;;;;;;;0.60;0.47;;;;;;;;;;5049074;28;20049;-68
2021/11/30 03:25:05;;;;;;;0.40;0.30;;;;;;;;;;5034673;28;20022;-68
2021/11/30 03:27:31;;;;;;;0.93;0.55;;;;;;;;;;5035643;28;20026;-68
2021/11/30 03:29:57;;;;;;;0.45;0.40;;;;;;;;;;5034611;28;20478;-66
2021/11/30 03:35:03;;;;;;;1.00;0.47;;;;;;;;;;5055017;28;20029;-66
2021/11/30 03:37:29;;;;;;;0.80;0.40;;;;;;;;;;5053792;28;20045;-67
2021/11/30 03:40:02;;;;;;;1.27;0.40;;;;;;;;;;5053981;28;20034;-67
2021/11/30 03:42:28;;;;;;;1.33;0.40;;;;;;;;;;5053431;28;20033;-68
2021/11/30 03:44:56;;;;;;;0.65;0.60;;;;;;;;;;5053982;28;20029;-68
2021/11/30 03:47:23;;;;;;;0.60;0.50;;;;;;;;;;5053326;28;20032;-67
2021/11/30 03:49:49;;;;;;;1.65;0.45;;;;;;;;;;5052439;28;20029;-68
2021/11/30 03:52:16;;;;;;;0.65;0.52;;;;;;;;;;5052188;28;20032;-68
2021/11/30 03:54:42;;;;;;;0.45;0.30;;;;;;;;;;5052387;28;20390;-68
2021/11/30 03:57:08;;;;;;;0.80;0.50;;;;;;;;;;5052855;28;20463;-68
2021/11/30 03:59:34;;;;;;;1.15;0.45;;;;;;;;;;5053812;28;20016;-68
2021/11/30 04:02:00;;;;;;;1.13;0.50;;;;;;;;;;5053039;28;20029;-67
2021/11/30 04:04:30;;;;;;;2.50;0.50;;;;;;;;;;5050986;28;20025;-68
2021/11/30 04:07:02;;;;;;;0.70;0.40;;;;;;;;;;5050433;28;20374;-66
2021/11/30 04:09:28;;;;;;;0.90;0.30;;;;;;;;;;5052969;28;20025;-67
2021/11/30 04:11:55;;;;;;;0.52;0.30;;;;;;;;;;5053461;28;20142;-67
2021/11/30 04:14:21;;;;;;;3.15;0.50;;;;;;;;;;5050472;28;20025;-67
2021/11/30 04:16:47;;;;;;;0.98;0.63;;;;;;;;;;5054596;28;20401;-68
2021/11/30 04:19:13;;;;;;;0.75;0.30;;;;;;;;;;5054041;28;20028;-67
2021/11/30 04:21:39;;;;;;;0.77;0.50;;;;;;;;;;5054318;28;20491;-68
2021/11/30 04:24:06;;;;;;;1.02;0.63;;;;;;;;;;5051921;28;20103;-68
2021/11/30 04:26:32;;;;;;;1.63;0.52;;;;;;;;;;5050064;28;20441;-68
2021/11/30 04:28:59;;;;;;;1.40;0.50;;;;;;;;;;5052477;28;20112;-66
2021/11/30 04:31:25;;;;;;;2.88;0.82;;;;;;;;;;5052917;28;20063;-67
2021/11/30 04:33:51;;;;;;;0.77;0.50;;;;;;;;;;5052602;28;20032;-69
2021/11/30 04:36:17;;;;;;;0.63;0.40;;;;;;;;;;5051993;28;20588;-68
2021/11/30 04:38:43;;;;;;;0.43;0.30;;;;;;;;;;5053022;28;20056;-68
2021/11/30 04:41:09;;;;;;;0.85;0.40;;;;;;;;;;5052189;28;20072;-68
2021/11/30 04:43:35;;;;;;;0.30;0.30;;;;;;;;;;5051840;28;20029;-68
2021/11/30 04:46:24;;;;;;;0.82;0.50;;;;;;;;;;5051987;28;20107;-67
2021/11/30 04:48:57;;;;;;;0.40;0.30;;;;;;;;;;5051687;28;20082;-67
2021/11/30 04:51:25;;;;;;;0.80;0.38;;;;;;;;;;5050679;28;20029;-68
2021/11/30 04:53:51;;;;;;;0.77;0.52;;;;;;;;;;5052276;28;20021;-68
2021/11/30 04:56:17;;;;;;;1.30;0.57;;;;;;;;;;5051931;28;20047;-68
2021/11/30 04:58:44;;;;;;;0.50;0.40;;;;;;;;;;5052615;28;20069;-68
2021/11/30 05:01:10;;;;;;;1.38;0.38;;;;;;;;;;5051691;28;20053;-67
2021/11/30 05:03:37;;;;;;;0.98;0.47;;;;;;;;;;5051984;28;20074;-68
2021/11/30 05:06:05;;;;;;;0.60;0.50;;;;;;;;;;5051663;28;20052;-69
2021/11/30 05:08:31;;;;;;;0.60;0.28;;;;;;;;;;5052268;28;20040;-69
2021/11/30 05:10:57;;;;;;;0.80;0.50;;;;;;;;;;5048381;28;20045;-66
2021/11/30 05:13:23;;;;;;;0.50;0.40;;;;;;;;;;5050388;28;20083;-68
2021/11/30 05:15:49;;;;;;;0.32;0.30;;;;;;;;;;5053450;28;20409;-69
2021/11/30 05:18:15;;;;;;;0.80;0.40;;;;;;;;;;5052292;28;20184;-66
2021/11/30 05:20:43;;;;;;;1.15;0.45;;;;;;;;;;5049310;28;20217;-66
2021/11/30 05:23:12;;;;;;;0.68;0.50;;;;;;;;;;5050503;28;20016;-60
2021/11/30 05:25:40;;;;;;;0.88;0.40;;;;;;;;;;5046735;28;20462;-66
2021/11/30 05:28:06;;;;;;;0.95;0.70;;;;;;;;;;5051405;28;20063;-66
2021/11/30 05:30:36;;;;;;;0.73;0.40;;;;;;;;;;5051114;28;20025;-65
2021/11/30 05:33:06;;;;;;;1.27;0.60;;;;;;;;;;5047928;28;20033;-67
2021/11/30 05:35:33;;;;;;;0.60;0.43;;;;;;;;;;5040245;28;20086;-67
2021/11/30 05:37:59;;;;;;;0.80;0.47;;;;;;;;;;5032591;28;20053;-67
2021/11/30 05:40:26;;;;;;;0.52;0.40;;;;;;;;;;5050585;28;20131;-67
2021/11/30 05:42:52;;;;;;;0.57;0.40;;;;;;;;;;5051103;28;21015;-68
2021/11/30 05:45:18;;;;;;;1.20;0.95;;;;;;;;;;5047982;28;20032;-68
2021/11/30 05:47:45;;;;;;;0.32;0.30;;;;;;;;;;5051567;28;20543;-67
2021/11/30 05:50:11;;;;;;;0.85;0.60;;;;;;;;;;5050879;28;20025;-67
2021/11/30 05:52:37;;;;;;;0.47;0.40;;;;;;;;;;5048163;28;20037;-68
2021/11/30 05:55:04;;;;;;;0.32;0.30;;;;;;;;;;5050577;28;20021;-68
2021/11/30 05:57:31;;;;;;;1.17;0.50;;;;;;;;;;5050679;28;20017;-70
2021/11/30 06:00:00;;;;;;;0.65;0.45;;;;;;;;;;5050644;28;20096;-66
2021/11/30 06:02:28;;;;;;;0.40;0.30;;;;;;;;;;5050283;28;20041;-69
2021/11/30 06:04:55;;;;;;;0.98;0.55;;;;;;;;;;5050889;28;20438;-65
2021/11/30 06:07:21;;;;;;;0.55;0.47;;;;;;;;;;5048657;28;20094;-68
2021/11/30 06:09:47;;;;;;;0.40;0.30;;;;;;;;;;5051544;28;20470;-68
2021/11/30 06:12:13;;;;;;;1.48;0.52;;;;;;;;;;5049823;28;20095;-68
2021/11/30 06:14:39;;;;;;;1.08;0.43;;;;;;;;;;5048946;28;20374;-69
2021/11/30 06:17:06;;;;;;;1.02;0.60;;;;;;;;;;5044384;28;20028;-68
2021/11/30 06:19:35;;;;;;;0.70;0.40;;;;;;;;;;5032339;28;20502;-68
2021/11/30 06:22:01;;;;;;;1.30;0.38;;;;;;;;;;5035469;28;20497;-67
2021/11/30 06:24:27;;;;;;;0.52;0.40;;;;;;;;;;5052246;28;20024;-68
2021/11/30 06:26:53;;;;;;;1.08;0.40;;;;;;;;;;5051967;28;20064;-68
2021/11/30 06:29:19;;;;;;;1.25;0.68;;;;;;;;;;5051017;28;20588;-67
2021/11/30 06:31:46;;;;;;;2.38;0.45;;;;;;;;;;5051974;28;20044;-68
2021/11/30 06:34:12;;;;;;;0.50;0.43;;;;;;;;;;5051222;28;20021;-68
2021/11/30 06:36:38;;;;;;;0.80;0.32;;;;;;;;;;5052120;28;20052;-67
2021/11/30 06:39:05;;;;;;;2.25;0.60;;;;;;;;;;5051436;28;20055;-68
2021/11/30 06:41:31;;;;;;;0.90;0.43;;;;;;;;;;5052098;28;20036;-69
2021/11/30 06:44:03;;;;;;;1.00;0.40;;;;;;;;;;5051273;28;20063;-66
2021/11/30 06:46:29;;;;;;;2.40;0.77;;;;;;;;;;5051818;28;20593;-63
2021/11/30 06:48:55;;;;;;;5.18;0.75;;;;;;;;;;5051035;28;20154;-61
2021/11/30 06:51:22;;;;;;;2.95;0.70;;;;;;;;;;5050965;28;20029;-61
2021/11/30 06:53:48;;;;;;;1.38;0.68;;;;;;;;;;5051661;28;20040;-61
2021/11/30 06:56:14;;;;;;;6.85;1.13;;;;;;;;;;5050722;28;20470;-60
2021/11/30 06:58:40;;;;;;;2.83;0.90;;;;;;;;;;5051442;28;20478;-63
2021/11/30 07:01:08;;;;;;;2.22;0.70;;;;;;;;;;5050573;28;20033;-61
2021/11/30 07:03:34;;;;;;;3.83;1.05;;;;;;;;;;5051165;28;20475;-63
2021/11/30 07:06:20;;;;;;;5.63;1.20;;;;;;;;;;5062350;28;20139;-61
2021/11/30 07:08:54;;;;;;;6.47;0.80;;;;;;;;;;5082775;28;20025;-61
2021/11/30 07:13:46;;;;;;;6.57;1.08;;;;;;;;;;5051556;28;20033;-62
2021/11/30 07:16:12;;;;;;;3.10;1.80;;;;;;;;;;5050045;28;20632;-61
2021/11/30 07:18:40;;;;;;;7.32;0.75;;;;;;;;;;5051773;28;20534;-62
2021/11/30 07:21:06;;;;;;;8.48;1.58;;;;;;;;;;5067311;28;20466;-61
2021/11/30 07:23:32;;;;;;;3.00;0.90;;;;;;;;;;5050341;28;20021;-62
2021/11/30 07:26:05;;;;;;;3.97;0.70;;;;;;;;;;5049155;28;20031;-61
2021/11/30 07:28:32;;;;;;;3.33;0.80;;;;;;;;;;5048945;28;20017;-62
2021/11/30 07:31:10;;;;;;;2.83;0.70;;;;;;;;;;5050519;28;20021;-62
2021/11/30 07:33:37;;;;;;;1.73;0.65;;;;;;;;;;5050630;28;20037;-61
2021/11/30 07:36:09;;;;;;;2.72;1.10;;;;;;;;;;5049008;28;20048;-61
2021/11/30 07:38:35;;;;;;;4.03;0.90;;;;;;;;;;5051285;28;20076;-61
2021/11/30 07:41:03;;;;;;;1.40;0.68;;;;;;;;;;5048783;28;20032;-61
2021/11/30 07:43:29;;;;;;;2.85;1.17;;;;;;;;;;5050843;28;20033;-61
2021/11/30 07:45:56;;;;;;;2.03;0.70;;;;;;;;;;5050468;28;20045;-61
2021/11/30 07:48:23;;;;;;;3.10;0.77;;;;;;;;;;5049889;28;20470;-61
2021/11/30 07:50:50;;;;;;;3.58;0.80;;;;;;;;;;5050995;28;20466;-61
2021/11/30 07:53:16;;;;;;;3.30;0.60;;;;;;;;;;5050432;28;20171;-61
2021/11/30 07:55:42;;;;;;;3.17;0.82;;;;;;;;;;5050481;28;20486;-61
2021/11/30 07:58:09;;;;;;;12.85;1.67;;;;;;;;;;5049197;28;20108;-61
2021/11/30 08:00:35;;;;;;;2.45;1.10;;;;;;;;;;5052403;28;20059;-61
2021/11/30 08:03:04;;;;;;;1.20;0.90;;;;;;;;;;5034165;28;20393;-61
2021/11/30 08:05:30;;;;;;;2.08;0.85;;;;;;;;;;5052374;28;20025;-61
2021/11/30 08:07:57;;;;;;;4.25;1.30;;;;;;;;;;5049512;28;20095;-61
2021/11/30 08:10:26;;;;;;;4.40;0.60;;;;;;;;;;5053223;28;20029;-61
2021/11/30 08:12:52;;;;;;;4.40;0.73;;;;;;;;;;5054249;28;20060;-61
2021/11/30 08:15:19;;;;;;;1.08;0.50;;;;;;;;;;5054257;28;20067;-61
2021/11/30 08:17:45;;;;;;;0.73;0.52;;;;;;;;;;5054412;28;20473;-61
2021/11/30 08:20:12;;;;;;;2.50;0.75;;;;;;;;;;5053302;28;20037;-61
2021/11/30 08:22:38;;;;;;;2.03;1.00;;;;;;;;;;5054206;28;20036;-61
2021/11/30 08:25:05;;;;;;;1.33;0.65;;;;;;;;;;5053806;28;20441;-61
2021/11/30 08:27:31;;;;;;;1.40;0.55;;;;;;;;;;5054559;28;20025;-61
2021/11/30 08:29:57;;;;;;;0.55;0.50;;;;;;;;;;5053634;28;20036;-61
2021/11/30 08:32:23;;;;;;;2.42;0.60;;;;;;;;;;5053274;28;20089;-61
2021/11/30 08:34:51;;;;;;;1.95;0.55;;;;;;;;;;5054070;28;20036;-61
2021/11/30 08:37:18;;;;;;;0.68;0.50;;;;;;;;;;5053337;28;20045;-61
2021/11/30 08:39:44;;;;;;;1.48;0.70;;;;;;;;;;5053408;28;20021;-61
2021/11/30 08:42:11;;;;;;;1.10;0.65;;;;;;;;;;5053449;28;20021;-61
2021/11/30 08:44:37;;;;;;;1.75;0.60;;;;;;;;;;5053974;28;20110;-61
2021/11/30 08:47:07;;;;;;;2.25;1.00;;;;;;;;;;5052317;28;20114;-61
2021/11/30 08:49:33;;;;;;;3.17;0.70;;;;;;;;;;5049496;28;20028;-59
2021/11/30 08:51:59;;;;;;;3.30;0.90;;;;;;;;;;5053957;28;20043;-61
2021/11/30 08:54:26;;;;;;;5.63;0.50;;;;;;;;;;5054439;28;20040;-61
2021/11/30 08:56:52;;;;;;;3.50;0.70;;;;;;;;;;5053634;28;20110;-62
2021/11/30 08:59:19;;;;;;;3.08;0.82;;;;;;;;;;5052590;28;20116;-62
2021/11/30 09:01:46;;;;;;;3.55;1.02;;;;;;;;;;5051657;28;20081;-61
2021/11/30 09:04:12;;;;;;;1.52;0.88;;;;;;;;;;5052788;28;20104;-61
2021/11/30 09:06:39;;;;;;;2.05;0.95;;;;;;;;;;5052750;28;20021;-62
2021/11/30 09:09:07;;;;;;;2.97;0.60;;;;;;;;;;5052555;28;20033;-61
2021/11/30 09:11:37;;;;;;;0.88;0.55;;;;;;;;;;5051427;28;20493;-61
2021/11/30 09:14:10;;;;;;;0.88;0.43;;;;;;;;;;5052115;28;20032;-61
2021/11/30 09:16:36;;;;;;;1.20;0.50;;;;;;;;;;5053278;28;20068;-62
2021/11/30 09:19:05;;;;;;;3.47;0.93;;;;;;;;;;5050616;28;20025;-61
2021/11/30 09:21:31;;;;;;;4.97;0.60;;;;;;;;;;5052825;28;20032;-61
2021/11/30 09:23:58;;;;;;;0.90;0.57;;;;;;;;;;5052669;28;20029;-61
2021/11/30 09:26:24;;;;;;;1.25;0.50;;;;;;;;;;5051643;28;20017;-61
2021/11/30 09:28:51;;;;;;;1.85;0.47;;;;;;;;;;5045793;28;20519;-61
2021/11/30 09:31:17;;;;;;;0.60;0.40;;;;;;;;;;5052400;28;20028;-61
2021/11/30 09:33:43;;;;;;;2.83;0.95;;;;;;;;;;5053778;28;20033;-61
2021/11/30 09:36:11;;;;;;;1.17;0.30;;;;;;;;;;5051786;28;20025;-61
2021/11/30 09:38:38;;;;;;;0.43;0.38;;;;;;;;;;5053149;28;20144;-61
2021/11/30 09:41:05;;;;;;;1.20;0.52;;;;;;;;;;5051854;28;20029;-61
2021/11/30 09:43:32;;;;;;;1.23;0.50;;;;;;;;;;5051917;28;20061;-61
2021/11/30 09:45:59;;;;;;;1.70;0.70;;;;;;;;;;5051484;28;20033;-61
2021/11/30 09:48:26;;;;;;;1.30;0.60;;;;;;;;;;5051052;28;20111;-61
2021/11/30 09:50:52;;;;;;;3.47;0.70;;;;;;;;;;5051962;28;20042;-61
2021/11/30 09:53:18;;;;;;;0.60;0.43;;;;;;;;;;5051895;28;20110;-61
2021/11/30 09:55:47;;;;;;;1.25;0.50;;;;;;;;;;5052559;28;20025;-61
2021/11/30 09:58:13;;;;;;;1.17;0.47;;;;;;;;;;5051501;28;20021;-61
2021/11/30 10:00:40;;;;;;;0.60;0.55;;;;;;;;;;5051928;28;20028;-61
2021/11/30 10:03:13;;;;;;;1.27;0.65;;;;;;;;;;5051777;28;20037;-61
2021/11/30 10:05:39;;;;;;;1.17;0.65;;;;;;;;;;5051899;28;20021;-61
2021/11/30 10:08:08;;;;;;;0.38;0.30;;;;;;;;;;5052251;28;20021;-62
2021/11/30 10:10:38;;;;;;;0.60;0.40;;;;;;;;;;5051965;28;20017;-61
2021/11/30 10:13:04;;;;;;;0.50;0.40;;;;;;;;;;5052310;28;20033;-61
2021/11/30 10:15:31;;;;;;;1.83;0.40;;;;;;;;;;5050524;28;20216;-61
2021/11/30 10:18:16;;;;;;;0.73;0.55;;;;;;;;;;5050753;28;20108;-61
2021/11/30 10:20:42;;;;;;;0.57;0.40;;;;;;;;;;5050646;28;20108;-61
2021/11/30 10:23:13;;;;;;;0.50;0.30;;;;;;;;;;5051218;28;20029;-61
2021/11/30 10:25:40;;;;;;;0.90;0.40;;;;;;;;;;5051544;28;20029;-61
2021/11/30 10:28:12;;;;;;;0.45;0.40;;;;;;;;;;5051071;28;20546;-61
2021/11/30 10:30:40;;;;;;;1.08;0.52;;;;;;;;;;5051805;28;20047;-61
2021/11/30 10:33:07;;;;;;;0.30;0.30;;;;;;;;;;5051986;28;20363;-61
2021/11/30 10:35:34;;;;;;;0.45;0.28;;;;;;;;;;5050908;28;20033;-61
2021/11/30 10:38:01;;;;;;;0.82;0.50;;;;;;;;;;5051954;28;20124;-61
2021/11/30 10:40:29;;;;;;;0.65;0.40;;;;;;;;;;5050271;28;20021;-61
2021/11/30 10:42:56;;;;;;;0.65;0.40;;;;;;;;;;5051984;28;20111;-62
2021/11/30 10:45:26;;;;;;;1.48;0.50;;;;;;;;;;5051268;28;20037;-62
2021/11/30 10:47:52;;;;;;;0.30;0.30;;;;;;;;;;5050919;28;20429;-61
2021/11/30 10:50:23;;;;;;;0.60;0.45;;;;;;;;;;5050131;28;20060;-61
2021/11/30 10:52:51;;;;;;;0.90;0.60;;;;;;;;;;5051139;28;20386;-61
2021/11/30 10:55:19;;;;;;;0.80;0.50;;;;;;;;;;5051051;28;20071;-61
2021/11/30 10:57:47;;;;;;;0.98;0.40;;;;;;;;;;5050682;28;20471;-61
2021/11/30 11:00:19;;;;;;;0.65;0.40;;;;;;;;;;5051123;28;20102;-61
2021/11/30 11:02:54;;;;;;;1.92;0.40;;;;;;;;;;5051542;28;20029;-61
2021/11/30 11:05:20;;;;;;;0.45;0.30;;;;;;;;;;5050956;28;20021;-61
2021/11/30 11:07:59;;;;;;;0.40;0.30;;;;;;;;;;5051162;28;20032;-61
2021/11/30 11:10:26;;;;;;;0.50;0.30;;;;;;;;;;5050893;28;20025;-61
2021/11/30 11:12:52;;;;;;;0.77;0.40;;;;;;;;;;5051475;28;20390;-61
2021/11/30 11:15:37;;;;;;;0.45;0.32;;;;;;;;;;5050918;28;20509;-61
2021/11/30 11:18:18;;;;;;;0.63;0.40;;;;;;;;;;5050221;28;20524;-61
2021/11/30 11:20:44;;;;;;;1.02;0.40;;;;;;;;;;5050973;28;20371;-61
2021/11/30 11:23:22;;;;;;;1.50;0.50;;;;;;;;;;5050647;28;20151;-61
2021/11/30 11:25:52;;;;;;;1.08;0.55;;;;;;;;;;5051579;28;20040;-62
2021/11/30 11:28:18;;;;;;;3.05;1.30;;;;;;;;;;5051080;28;20038;-60
2021/11/30 11:30:44;;;;;;;2.47;1.08;;;;;;;;;;5051333;28;20025;-62
2021/11/30 11:33:13;;;;;;;1.40;0.80;;;;;;;;;;5030646;28;20474;-65
2021/11/30 11:35:40;;;;;;;3.65;0.90;;;;;;;;;;5051729;28;20032;-65
2021/11/30 11:38:07;;;;;;;31.52;1.85;;;;;;;;;;5054678;28;20086;-66
2021/11/30 11:40:34;;;;;;;1.80;0.80;;;;;;;;;;5054495;28;20021;-65
2021/11/30 11:43:01;;;;;;;1.30;0.68;;;;;;;;;;5055285;28;20369;-64
2021/11/30 11:45:27;;;;;;;1.60;1.20;;;;;;;;;;5053990;28;20029;-65
2021/11/30 11:47:53;;;;;;;1.88;0.95;;;;;;;;;;5051390;28;21254;-64
2021/11/30 11:50:19;;;;;;;1.80;0.90;;;;;;;;;;5056260;28;20021;-64
2021/11/30 11:52:46;;;;;;;2.22;0.90;;;;;;;;;;5056032;28;20529;-64
2021/11/30 11:55:15;;;;;;;2.25;0.60;;;;;;;;;;5053810;28;20072;-64
2021/11/30 11:57:55;;;;;;;1.90;1.02;;;;;;;;;;5054573;28;20040;-64
2021/11/30 12:00:24;;;;;;;3.38;0.82;;;;;;;;;;5054055;28;20441;-64
2021/11/30 12:02:54;;;;;;;1.52;0.90;;;;;;;;;;5054433;28;20035;-64
2021/11/30 12:05:54;;;;;;;1.75;0.80;;;;;;;;;;5053898;28;20113;-64
2021/11/30 12:08:27;;;;;;;1.38;0.70;;;;;;;;;;5019692;28;20134;-64
2021/11/30 12:10:53;;;;;;;2.63;0.98;;;;;;;;;;5054140;28;20401;-64
2021/11/30 12:13:22;;;;;;;2.53;1.02;;;;;;;;;;5053550;28;20067;-64
2021/11/30 12:15:54;;;;;;;2.42;0.73;;;;;;;;;;5054778;28;20033;-64
2021/11/30 12:18:27;;;;;;;1.67;0.63;;;;;;;;;;5051540;28;20017;-64
2021/11/30 12:20:53;;;;;;;1.38;0.75;;;;;;;;;;5053715;28;20078;-64
2021/11/30 12:23:35;;;;;;;1.83;0.60;;;;;;;;;;5053336;28;20044;-64
2021/11/30 12:26:01;;;;;;;1.27;0.70;;;;;;;;;;5053311;28;20102;-64
2021/11/30 12:28:40;;;;;;;2.05;0.60;;;;;;;;;;5053353;28;20417;-64
2021/11/30 12:31:07;;;;;;;3.47;0.80;;;;;;;;;;5054227;28;20017;-64
2021/11/30 12:33:37;;;;;;;3.40;0.85;;;;;;;;;;5053469;28;20063;-64
2021/11/30 12:36:08;;;;;;;1.63;0.70;;;;;;;;;;5054201;28;20020;-66
2021/11/30 12:38:56;;;;;;;1.40;0.50;;;;;;;;;;5053318;28;20114;-64
2021/11/30 12:41:39;;;;;;;2.28;0.70;;;;;;;;;;5053059;28;20025;-64
2021/11/30 12:44:10;;;;;;;1.13;0.50;;;;;;;;;;5054059;28;20025;-64
2021/11/30 12:46:36;;;;;;;0.73;0.60;;;;;;;;;;5052117;28;20486;-64
2021/11/30 12:49:12;;;;;;;1.80;0.65;;;;;;;;;;5052412;28;20094;-64
2021/11/30 12:51:38;;;;;;;0.80;0.55;;;;;;;;;;5050081;28;20069;-64
2021/11/30 12:54:05;;;;;;;1.17;0.60;;;;;;;;;;5053400;28;20118;-64
2021/11/30 12:56:49;;;;;;;0.95;0.50;;;;;;;;;;5052947;28;20068;-68
2021/11/30 12:59:35;;;;;;;1.08;0.80;;;;;;;;;;5053468;28;20021;-65
2021/11/30 13:02:11;;;;;;;1.00;0.50;;;;;;;;;;5052534;28;20037;-65
2021/11/30 13:04:37;;;;;;;0.70;0.50;;;;;;;;;;5052447;28;20108;-69
2021/11/30 13:07:03;;;;;;;3.83;0.40;;;;;;;;;;5053907;28;20021;-68
2021/11/30 13:09:40;;;;;;;2.00;0.63;;;;;;;;;;5052712;28;20581;-64
2021/11/30 13:12:07;;;;;;;1.63;0.95;;;;;;;;;;5053312;28;20626;-63
2021/11/30 13:14:35;;;;;;;1.60;0.50;;;;;;;;;;5053617;28;20350;-64
2021/11/30 13:17:01;;;;;;;1.25;0.60;;;;;;;;;;5054373;28;20048;-63
2021/11/30 13:19:32;;;;;;;0.80;0.30;;;;;;;;;;5053454;28;20108;-64
2021/11/30 13:21:58;;;;;;;1.15;0.40;;;;;;;;;;5054128;28;20079;-64
2021/11/30 13:24:32;;;;;;;1.60;0.68;;;;;;;;;;5053429;28;20033;-64
2021/11/30 13:27:08;;;;;;;0.73;0.47;;;;;;;;;;5054076;28;20021;-64
2021/11/30 13:29:34;;;;;;;0.50;0.40;;;;;;;;;;5053343;28;20017;-63
2021/11/30 13:32:01;;;;;;;1.00;0.50;;;;;;;;;;5053947;28;20400;-63
2021/11/30 13:34:27;;;;;;;1.10;0.50;;;;;;;;;;5053215;28;20059;-64
2021/11/30 13:36:53;;;;;;;0.50;0.40;;;;;;;;;;5053916;28;20514;-64
2021/11/30 13:39:19;;;;;;;2.10;0.70;;;;;;;;;;5053302;28;20009;-63
2021/11/30 13:41:46;;;;;;;0.50;0.43;;;;;;;;;;5053718;28;20029;-63
2021/11/30 13:44:12;;;;;;;3.28;0.50;;;;;;;;;;5053186;28;20466;-63
2021/11/30 13:46:40;;;;;;;0.55;0.35;;;;;;;;;;5052832;28;20048;-64
2021/11/30 13:49:08;;;;;;;1.42;0.60;;;;;;;;;;5053634;28;20442;-63
2021/11/30 13:51:41;;;;;;;0.68;0.28;;;;;;;;;;5052964;28;20046;-64
2021/11/30 13:54:11;;;;;;;0.65;0.38;;;;;;;;;;5053476;28;20365;-64
2021/11/30 13:56:50;;;;;;;0.70;0.63;;;;;;;;;;5052852;28;20067;-63
2021/11/30 13:59:20;;;;;;;0.30;0.30;;;;;;;;;;5052479;28;20020;-64
2021/11/30 14:01:48;;;;;;;0.30;0.30;;;;;;;;;;5052516;28;20032;-64
2021/11/30 14:04:16;;;;;;;0.55;0.30;;;;;;;;;;5053016;28;20474;-64
2021/11/30 14:06:47;;;;;;;0.38;0.25;;;;;;;;;;5053204;28;20477;-63
2021/11/30 14:09:15;;;;;;;0.55;0.55;;;;;;;;;;5053152;28;20100;-63
2021/11/30 14:11:46;;;;;;;1.20;0.40;;;;;;;;;;5052778;28;20021;-64
2021/11/30 14:14:13;;;;;;;0.17;0.13;;;;;;;;;;5052684;28;20465;-63
2021/11/30 14:16:47;;;;;;;0.55;0.30;;;;;;;;;;5052528;28;20021;-63
2021/11/30 14:19:14;;;;;;;0.30;0.30;;;;;;;;;;5053014;28;20078;-63
2021/11/30 14:21:40;;;;;;;0.28;0.28;;;;;;;;;;5052295;28;20370;-63
2021/11/30 14:24:14;;;;;;;0.50;0.30;;;;;;;;;;5052823;28;20013;-63
2021/11/30 14:26:44;;;;;;;0.82;0.32;;;;;;;;;;5052033;28;20438;-63
2021/11/30 14:29:12;;;;;;;0.65;0.57;;;;;;;;;;5052664;28;20019;-63
2021/11/30 14:31:58;;;;;;;0.60;0.40;;;;;;;;;;5052109;28;20370;-63
2021/11/30 14:34:32;;;;;;;0.30;0.30;;;;;;;;;;5052088;28;20073;-63
2021/11/30 14:37:16;;;;;;;0.60;0.38;;;;;;;;;;5052521;28;20126;-64
2021/11/30 14:39:43;;;;;;;0.30;0.20;;;;;;;;;;5052399;28;20055;-65
2021/11/30 14:42:28;;;;;;;1.08;0.50;;;;;;;;;;5052803;28;20407;-65
2021/11/30 14:45:12;;;;;;;0.50;0.43;;;;;;;;;;5052633;28;20021;-63
2021/11/30 14:47:39;;;;;;;0.55;0.40;;;;;;;;;;5051958;28;20067;-65
2021/11/30 14:50:06;;;;;;;0.30;0.30;;;;;;;;;;5052289;28;20462;-63
2021/11/30 14:52:41;;;;;;;0.50;0.40;;;;;;;;;;5051635;28;20033;-63
2021/11/30 14:55:16;;;;;;;0.57;0.20;;;;;;;;;;5052597;28;20017;-63